Time;durP1;ratioP1;P1;durP2;ratioP2;P2;SDS_P1;SDS_P2;PMS_P1;PMS_P2;Temp;Humidity;BMP_temperature;BMP_pressure;BME280_temperature;BME280_humidity;BME280_pressure;Samples;Min_cycle;Max_cycle;Signal;HPM_P1;HPM_P2
2021/07/04 00:00:42;;;;;;;10.23;9.23;;;;;23.50;100131.00;;;;2058774;28;20211;-66
2021/07/04 00:01:43;;;;;;;9.82;8.82;;;;;23.50;100137.00;;;;2059006;28;20223;-66
2021/07/04 00:02:43;;;;;;;10.60;9.60;;;;;23.50;100136.00;;;;2059148;28;20231;-66
2021/07/04 00:03:43;;;;;;;11.33;10.23;;;;;23.50;100129.00;;;;2059687;28;20306;-66
2021/07/04 00:04:44;;;;;;;9.77;8.87;;;;;23.50;100141.00;;;;2059851;28;20219;-66
2021/07/04 00:05:46;;;;;;;10.00;9.03;;;;;23.60;100136.00;;;;2059113;28;20223;-66
2021/07/04 00:06:46;;;;;;;10.32;9.43;;;;;23.50;100129.00;;;;2058807;28;20273;-66
2021/07/04 00:07:47;;;;;;;10.83;9.83;;;;;23.60;100134.00;;;;2057962;28;20633;-66
2021/07/04 00:08:47;;;;;;;10.10;9.10;;;;;23.60;100131.00;;;;2058850;28;20211;-65
2021/07/04 00:09:47;;;;;;;10.60;9.60;;;;;23.60;100132.00;;;;2058786;28;20282;-66
2021/07/04 00:10:58;;;;;;;9.67;8.77;;;;;23.60;100133.00;;;;2061284;28;20220;-66
2021/07/04 00:11:58;;;;;;;10.10;9.20;;;;;23.50;100132.00;;;;2062029;28;20212;-65
2021/07/04 00:12:58;;;;;;;9.23;8.33;;;;;23.50;100128.00;;;;2060356;28;20219;-66
2021/07/04 00:13:59;;;;;;;9.00;8.20;;;;;23.50;100127.00;;;;2058953;28;20215;-66
2021/07/04 00:14:59;;;;;;;9.70;8.80;;;;;23.50;100133.00;;;;2059664;28;20243;-66
2021/07/04 00:16:00;;;;;;;8.90;8.00;;;;;23.50;100124.00;;;;2059675;28;20221;-65
2021/07/04 00:17:00;;;;;;;9.50;8.60;;;;;23.50;100127.00;;;;2059540;28;20227;-66
2021/07/04 00:18:01;;;;;;;9.97;9.07;;;;;23.60;100133.00;;;;2059753;28;20215;-66
2021/07/04 00:19:01;;;;;;;9.90;8.90;;;;;23.60;100127.00;;;;2059045;28;20215;-66
2021/07/04 00:20:06;;;;;;;9.40;8.60;;;;;23.60;100124.00;;;;2058823;28;20254;-66
2021/07/04 00:21:09;;;;;;;9.15;8.30;;;;;23.60;100125.00;;;;2058712;28;20230;-66
2021/07/04 00:22:09;;;;;;;9.32;8.52;;;;;23.50;100121.00;;;;2059567;28;20210;-65
2021/07/04 00:23:10;;;;;;;9.67;8.77;;;;;23.50;100119.00;;;;2059451;28;20805;-66
2021/07/04 00:24:10;;;;;;;9.50;8.60;;;;;23.50;100115.00;;;;2059514;28;20224;-66
2021/07/04 00:25:11;;;;;;;9.03;8.13;;;;;23.60;100115.00;;;;2059722;28;20219;-66
2021/07/04 00:26:13;;;;;;;9.73;8.82;;;;;23.50;100110.00;;;;2059169;28;20215;-66
2021/07/04 00:27:14;;;;;;;9.73;8.82;;;;;23.50;100101.00;;;;2057468;28;20721;-66
2021/07/04 00:28:14;;;;;;;10.47;9.47;;;;;23.50;100113.00;;;;2058843;28;20217;-66
2021/07/04 00:29:14;;;;;;;9.10;8.30;;;;;23.50;100107.00;;;;2058829;28;20214;-66
2021/07/04 00:30:15;;;;;;;8.70;7.93;;;;;23.50;100108.00;;;;2058865;28;21024;-66
2021/07/04 00:31:16;;;;;;;9.37;8.57;;;;;23.50;100107.00;;;;2059819;28;20730;-66
2021/07/04 00:32:16;;;;;;;9.63;8.57;;;;;23.50;100110.00;;;;2059530;28;20462;-66
2021/07/04 00:33:16;;;;;;;9.93;9.00;;;;;23.50;100107.00;;;;2059859;28;20226;-65
2021/07/04 00:34:17;;;;;;;9.50;8.60;;;;;23.50;100104.00;;;;2059391;28;20208;-65
2021/07/04 00:35:18;;;;;;;9.33;8.53;;;;;23.50;100095.00;;;;2058961;28;20670;-66
2021/07/04 00:36:18;;;;;;;9.55;8.57;;;;;23.50;100102.00;;;;2058945;28;20235;-66
2021/07/04 00:37:19;;;;;;;8.63;7.83;;;;;23.50;100103.00;;;;2058923;28;20223;-65
2021/07/04 00:38:19;;;;;;;8.50;7.70;;;;;23.50;100107.00;;;;2058751;28;20220;-66
2021/07/04 00:39:19;;;;;;;10.13;9.13;;;;;23.50;100105.00;;;;2059550;28;20227;-65
2021/07/04 00:40:20;;;;;;;8.30;7.70;;;;;23.50;100106.00;;;;2059431;28;20231;-66
2021/07/04 00:41:20;;;;;;;8.90;8.10;;;;;23.50;100101.00;;;;2061569;28;20219;-66
2021/07/04 00:42:21;;;;;;;8.33;7.63;;;;;23.50;100101.00;;;;2065669;28;20215;-66
2021/07/04 00:43:21;;;;;;;8.83;8.03;;;;;23.50;100104.00;;;;2063259;28;20223;-65
2021/07/04 00:44:22;;;;;;;8.87;7.97;;;;;23.50;100101.00;;;;2060939;28;20294;-65
2021/07/04 00:45:24;;;;;;;8.60;7.80;;;;;23.50;100104.00;;;;2061243;28;20278;-65
2021/07/04 00:46:26;;;;;;;9.00;8.30;;;;;23.50;100095.00;;;;2061266;28;20211;-65
2021/07/04 00:47:27;;;;;;;8.93;8.13;;;;;23.50;100100.00;;;;2060458;28;20260;-66
2021/07/04 00:48:27;;;;;;;8.60;7.70;;;;;23.50;100097.00;;;;2059413;28;20269;-66
2021/07/04 00:49:27;;;;;;;8.33;7.63;;;;;23.50;100092.00;;;;2060423;28;20210;-66
2021/07/04 00:50:29;;;;;;;8.23;7.47;;;;;23.50;100101.00;;;;2060273;28;20211;-65
2021/07/04 00:51:30;;;;;;;8.70;7.93;;;;;23.50;100101.00;;;;2060396;28;20262;-65
2021/07/04 00:52:30;;;;;;;7.50;6.90;;;;;23.50;100096.00;;;;2059751;28;20241;-66
2021/07/04 00:53:30;;;;;;;8.10;7.30;;;;;23.50;100096.00;;;;2050984;28;20710;-66
2021/07/04 00:54:31;;;;;;;7.40;6.80;;;;;23.50;100109.00;;;;2058683;28;20682;-66
2021/07/04 00:55:31;;;;;;;8.90;8.10;;;;;23.50;100108.00;;;;2060181;28;20207;-65
2021/07/04 00:56:32;;;;;;;7.87;7.17;;;;;23.50;100102.00;;;;2058828;28;20223;-66
2021/07/04 00:57:32;;;;;;;8.73;7.93;;;;;23.50;100105.00;;;;2061096;28;20207;-66
2021/07/04 00:58:33;;;;;;;9.10;8.17;;;;;23.50;100107.00;;;;2061304;28;20685;-66
2021/07/04 00:59:33;;;;;;;8.30;7.60;;;;;23.50;100108.00;;;;2060445;28;20301;-66
2021/07/04 01:00:36;;;;;;;8.30;7.60;;;;;23.50;100108.00;;;;2059315;28;20207;-66
2021/07/04 01:01:37;;;;;;;8.10;7.40;;;;;23.50;100111.00;;;;2059699;28;20217;-66
2021/07/04 01:02:37;;;;;;;8.00;7.30;;;;;23.50;100104.00;;;;2060280;28;20226;-65
2021/07/04 01:03:38;;;;;;;8.10;7.37;;;;;23.50;100100.00;;;;2060855;28;20558;-66
2021/07/04 01:04:38;;;;;;;7.77;7.07;;;;;23.50;100110.00;;;;2061084;28;20562;-66
2021/07/04 01:05:39;;;;;;;8.23;7.53;;;;;23.50;100108.00;;;;2061151;28;20595;-66
2021/07/04 01:06:40;;;;;;;7.97;7.27;;;;;23.50;100104.00;;;;2060960;28;20652;-66
2021/07/04 01:07:41;;;;;;;7.82;7.15;;;;;23.50;100102.00;;;;2060344;28;20457;-66
2021/07/04 01:08:41;;;;;;;8.20;7.40;;;;;23.50;100092.00;;;;2060324;28;20283;-65
2021/07/04 01:09:42;;;;;;;7.87;7.17;;;;;23.50;100093.00;;;;2060325;28;20984;-65
2021/07/04 01:10:42;;;;;;;7.97;7.27;;;;;23.50;100091.00;;;;2053216;28;20738;-66
2021/07/04 01:11:43;;;;;;;8.17;7.47;;;;;23.50;100089.00;;;;2054942;28;20245;-66
2021/07/04 01:12:47;;;;;;;8.70;7.80;;;;;23.50;100089.00;;;;2061497;28;20207;-66
2021/07/04 01:13:47;;;;;;;7.38;6.78;;;;;23.50;100093.00;;;;2066016;28;20210;-65
2021/07/04 01:14:47;;;;;;;8.13;7.53;;;;;23.50;100081.00;;;;2060904;28;20298;-66
2021/07/04 01:15:48;;;;;;;8.53;7.63;;;;;23.50;100084.00;;;;2059896;28;20203;-66
2021/07/04 01:16:49;;;;;;;7.57;6.87;;;;;23.50;100086.00;;;;2051724;28;20220;-66
2021/07/04 01:17:49;;;;;;;6.80;6.20;;;;;23.50;100077.00;;;;2051441;28;20542;-65
2021/07/04 01:18:49;;;;;;;7.80;7.00;;;;;23.50;100074.00;;;;2050920;28;20219;-66
2021/07/04 01:19:50;;;;;;;7.50;6.80;;;;;23.50;100076.00;;;;2060056;28;20226;-66
2021/07/04 01:20:51;;;;;;;7.40;6.80;;;;;23.50;100075.00;;;;2059126;28;20222;-66
2021/07/04 01:21:54;;;;;;;7.27;6.67;;;;;23.50;100078.00;;;;2059330;28;20207;-65
2021/07/04 01:23:07;;;;;;;7.50;6.85;;;;;23.50;100070.00;;;;2060085;28;20463;-66
2021/07/04 01:24:07;;;;;;;7.05;6.45;;;;;23.50;100069.00;;;;2059667;28;20676;-65
2021/07/04 01:25:09;;;;;;;8.43;7.70;;;;;23.50;100066.00;;;;2060117;28;20211;-66
2021/07/04 01:26:09;;;;;;;7.60;6.95;;;;;23.50;100069.00;;;;2060355;28;20220;-66
2021/07/04 01:27:10;;;;;;;7.67;6.97;;;;;23.50;100074.00;;;;2060914;28;20235;-66
2021/07/04 01:28:10;;;;;;;7.60;6.90;;;;;23.50;100061.00;;;;2060964;28;20207;-66
2021/07/04 01:29:11;;;;;;;7.47;6.87;;;;;23.50;100066.00;;;;2060653;28;20219;-66
2021/07/04 01:30:12;;;;;;;6.90;6.30;;;;;23.50;100069.00;;;;2060682;28;20732;-66
2021/07/04 01:31:12;;;;;;;7.70;7.00;;;;;23.50;100063.00;;;;2060035;28;20234;-66
2021/07/04 01:32:13;;;;;;;7.87;7.23;;;;;23.50;100066.00;;;;2059961;28;20712;-66
2021/07/04 01:33:13;;;;;;;7.23;6.63;;;;;23.50;100057.00;;;;2060197;28;20674;-66
2021/07/04 01:34:13;;;;;;;7.83;7.23;;;;;23.50;100056.00;;;;2060010;28;20302;-66
2021/07/04 01:35:14;;;;;;;7.53;6.93;;;;;23.50;100057.00;;;;2060721;28;20215;-66
2021/07/04 01:36:14;;;;;;;7.80;7.20;;;;;23.50;100055.00;;;;2060893;28;20204;-65
2021/07/04 01:37:15;;;;;;;7.30;6.60;;;;;23.50;100053.00;;;;2060691;28;20207;-66
2021/07/04 01:38:16;;;;;;;7.65;6.95;;;;;23.50;100051.00;;;;2061034;28;20305;-66
2021/07/04 01:39:16;;;;;;;7.17;6.50;;;;;23.50;100055.00;;;;2059560;28;20215;-65
2021/07/04 01:40:17;;;;;;;7.20;6.60;;;;;23.50;100053.00;;;;2059193;28;20215;-67
2021/07/04 01:41:17;;;;;;;7.30;6.60;;;;;23.50;100045.00;;;;2060449;28;20698;-66
2021/07/04 01:42:17;;;;;;;7.80;7.10;;;;;23.50;100046.00;;;;2066362;28;20303;-66
2021/07/04 01:43:18;;;;;;;7.33;6.73;;;;;23.50;100054.00;;;;2064299;28;20222;-66
2021/07/04 01:44:18;;;;;;;6.63;6.13;;;;;23.50;100050.00;;;;2060700;28;20219;-66
2021/07/04 01:45:20;;;;;;;7.20;6.60;;;;;23.50;100046.00;;;;2060814;28;20219;-65
2021/07/04 01:46:23;;;;;;;7.05;6.45;;;;;23.50;100041.00;;;;2060730;28;20211;-66
2021/07/04 01:47:23;;;;;;;6.75;6.20;;;;;23.50;100044.00;;;;2059965;28;20210;-66
2021/07/04 01:48:24;;;;;;;7.27;6.67;;;;;23.50;100041.00;;;;2059596;28;20211;-66
2021/07/04 01:49:24;;;;;;;7.37;6.67;;;;;23.50;100037.00;;;;2059760;28;20302;-66
2021/07/04 01:50:27;;;;;;;6.90;6.40;;;;;23.50;100044.00;;;;2059547;28;20214;-66
2021/07/04 01:51:27;;;;;;;7.45;6.82;;;;;23.50;100034.00;;;;2059930;28;20208;-66
2021/07/04 01:52:27;;;;;;;6.93;6.23;;;;;23.50;100032.00;;;;2060289;28;20251;-66
2021/07/04 01:53:28;;;;;;;7.10;6.50;;;;;23.50;100037.00;;;;2060250;28;20227;-65
2021/07/04 01:54:31;;;;;;;6.93;6.32;;;;;23.50;100036.00;;;;2059939;28;20219;-65
2021/07/04 01:55:31;;;;;;;7.00;6.47;;;;;23.50;100034.00;;;;2059051;28;20578;-65
2021/07/04 01:56:31;;;;;;;6.37;5.83;;;;;23.50;100042.00;;;;2059154;28;20311;-66
2021/07/04 01:57:32;;;;;;;6.73;6.13;;;;;23.50;100037.00;;;;2059912;28;20378;-66
2021/07/04 01:58:32;;;;;;;6.70;6.10;;;;;23.50;100037.00;;;;2059664;28;20301;-66
2021/07/04 01:59:32;;;;;;;6.47;5.97;;;;;23.50;100039.00;;;;2060246;28;20227;-66
2021/07/04 02:00:34;;;;;;;6.53;6.03;;;;;23.50;100030.00;;;;2058636;28;20286;-66
2021/07/04 02:01:34;;;;;;;5.82;5.32;;;;;23.50;100030.00;;;;2059216;28;20238;-65
2021/07/04 02:02:34;;;;;;;7.07;6.37;;;;;23.50;100038.00;;;;2059221;28;20219;-66
2021/07/04 02:03:35;;;;;;;6.90;6.40;;;;;23.50;100033.00;;;;2060227;28;20220;-66
2021/07/04 02:04:39;;;;;;;7.00;6.40;;;;;23.50;100031.00;;;;2060700;28;20224;-65
2021/07/04 02:05:40;;;;;;;7.00;6.40;;;;;23.50;100031.00;;;;2060501;28;20249;-66
2021/07/04 02:06:40;;;;;;;6.27;5.77;;;;;23.50;100025.00;;;;2060655;28;20215;-66
2021/07/04 02:07:41;;;;;;;7.20;6.60;;;;;23.50;100029.00;;;;2059442;28;20269;-66
2021/07/04 02:08:41;;;;;;;6.10;5.60;;;;;23.50;100025.00;;;;2059763;28;20218;-65
2021/07/04 02:09:49;;;;;;;6.10;5.60;;;;;23.50;100026.00;;;;2059794;28;20211;-65
2021/07/04 02:10:49;;;;;;;6.82;6.22;;;;;23.50;100024.00;;;;2061551;28;20246;-66
2021/07/04 02:11:50;;;;;;;6.37;5.87;;;;;23.50;100020.00;;;;2062130;28;20215;-65
2021/07/04 02:12:50;;;;;;;7.07;6.47;;;;;23.50;100019.00;;;;2060554;28;20745;-66
2021/07/04 02:13:51;;;;;;;6.60;6.10;;;;;23.50;100016.00;;;;2065787;28;20633;-65
2021/07/04 02:14:51;;;;;;;5.77;5.37;;;;;23.50;100015.00;;;;2059599;28;20219;-65
2021/07/04 02:15:51;;;;;;;6.97;6.40;;;;;23.50;100020.00;;;;2056854;28;20211;-66
2021/07/04 02:16:52;;;;;;;6.67;6.07;;;;;23.50;100009.00;;;;2059768;28;20211;-66
2021/07/04 02:17:52;;;;;;;7.17;6.50;;;;;23.50;100014.00;;;;2059751;28;20302;-65
2021/07/04 02:18:52;;;;;;;6.77;6.17;;;;;23.50;100016.00;;;;2059590;28;20220;-66
2021/07/04 02:19:53;;;;;;;6.63;5.97;;;;;23.50;100012.00;;;;2060397;28;20242;-66
2021/07/04 02:20:54;;;;;;;5.97;5.57;;;;;23.50;100016.00;;;;2051586;28;20774;-66
2021/07/04 02:21:54;;;;;;;7.18;6.47;;;;;23.50;100009.00;;;;2052002;28;20209;-66
2021/07/04 02:22:55;;;;;;;5.87;5.37;;;;;23.50;100012.00;;;;2060594;28;20245;-66
2021/07/04 02:23:55;;;;;;;6.80;6.20;;;;;23.50;100013.00;;;;2059763;28;20218;-66
2021/07/04 02:24:55;;;;;;;6.63;6.00;;;;;23.50;100011.00;;;;2059756;28;20269;-65
2021/07/04 02:25:56;;;;;;;5.93;5.43;;;;;23.50;100014.00;;;;2058537;28;20240;-66
2021/07/04 02:26:57;;;;;;;5.90;5.40;;;;;23.50;100016.00;;;;2059718;28;20216;-66
2021/07/04 02:27:57;;;;;;;6.80;6.20;;;;;23.50;100017.00;;;;2060073;28;20598;-66
2021/07/04 02:28:57;;;;;;;7.20;6.50;;;;;23.50;100016.00;;;;2060535;28;20235;-65
2021/07/04 02:29:58;;;;;;;6.30;5.80;;;;;23.50;100015.00;;;;2060364;28;20638;-66
2021/07/04 02:30:58;;;;;;;6.03;5.53;;;;;23.50;100016.00;;;;2060323;28;20494;-66
2021/07/04 02:31:58;;;;;;;5.80;5.30;;;;;23.50;100024.00;;;;2060147;28;20308;-65
2021/07/04 02:33:03;;;;;;;6.07;5.57;;;;;23.50;100022.00;;;;2059481;28;20223;-65
2021/07/04 02:34:03;;;;;;;5.93;5.43;;;;;23.50;100018.00;;;;2059582;28;20222;-66
2021/07/04 02:35:05;;;;;;;6.60;6.10;;;;;23.50;100021.00;;;;2059540;28;20223;-66
2021/07/04 02:36:05;;;;;;;6.40;5.90;;;;;23.50;100024.00;;;;2060038;28;20930;-66
2021/07/04 02:37:05;;;;;;;6.50;6.00;;;;;23.50;100021.00;;;;2060495;28;20227;-66
2021/07/04 02:38:06;;;;;;;6.40;5.87;;;;;23.50;100025.00;;;;2060425;28;20224;-65
2021/07/04 02:39:07;;;;;;;6.07;5.57;;;;;23.50;100029.00;;;;2060382;28;20305;-66
2021/07/04 02:40:08;;;;;;;6.13;5.63;;;;;23.50;100026.00;;;;2059907;28;20234;-65
2021/07/04 02:41:08;;;;;;;5.60;5.10;;;;;23.50;100029.00;;;;2053543;28;20511;-65
2021/07/04 02:42:08;;;;;;;6.10;5.60;;;;;23.50;100024.00;;;;2065385;28;20481;-65
2021/07/04 02:43:12;;;;;;;6.13;5.63;;;;;23.50;100028.00;;;;2063811;28;20723;-66
2021/07/04 02:44:12;;;;;;;6.03;5.55;;;;;23.50;100032.00;;;;2060370;28;20286;-66
2021/07/04 02:45:13;;;;;;;6.80;6.20;;;;;23.50;100028.00;;;;2060374;28;20219;-66
2021/07/04 02:46:14;;;;;;;6.40;5.87;;;;;23.50;100033.00;;;;2060189;28;20242;-66
2021/07/04 02:47:14;;;;;;;6.32;5.82;;;;;23.50;100034.00;;;;2060300;28;20227;-66
2021/07/04 02:48:14;;;;;;;6.30;5.80;;;;;23.50;100038.00;;;;2059613;28;20221;-66
2021/07/04 02:49:15;;;;;;;6.30;5.80;;;;;23.50;100037.00;;;;2059015;28;20889;-66
2021/07/04 02:50:20;;;;;;;5.90;5.40;;;;;23.50;100037.00;;;;2058925;28;20277;-66
2021/07/04 02:51:20;;;;;;;5.60;5.20;;;;;23.50;100032.00;;;;2059068;28;20224;-66
2021/07/04 02:52:21;;;;;;;6.67;6.10;;;;;23.50;100036.00;;;;2059574;28;20682;-65
2021/07/04 02:53:21;;;;;;;6.20;5.60;;;;;23.50;100031.00;;;;2059589;28;20247;-65
2021/07/04 02:54:21;;;;;;;5.53;5.07;;;;;23.50;100032.00;;;;2060116;28;20227;-66
2021/07/04 02:55:22;;;;;;;6.37;5.87;;;;;23.50;100030.00;;;;2058162;28;20215;-66
2021/07/04 02:56:22;;;;;;;5.60;5.20;;;;;23.50;100026.00;;;;2059219;28;20214;-66
2021/07/04 02:57:23;;;;;;;6.27;5.73;;;;;23.50;100026.00;;;;2058961;28;20298;-66
2021/07/04 02:58:23;;;;;;;6.03;5.53;;;;;23.50;100027.00;;;;2058960;28;20210;-66
2021/07/04 02:59:23;;;;;;;5.57;5.07;;;;;23.50;100024.00;;;;2058897;28;20682;-66
2021/07/04 03:00:25;;;;;;;5.77;5.27;;;;;23.50;100024.00;;;;2059307;28;20698;-66
2021/07/04 03:01:25;;;;;;;6.20;5.70;;;;;23.50;100032.00;;;;2060288;28;20207;-65
2021/07/04 03:02:26;;;;;;;6.20;5.70;;;;;23.50;100026.00;;;;2060318;28;20802;-66
2021/07/04 03:03:26;;;;;;;6.20;5.70;;;;;23.50;100018.00;;;;2059961;28;20305;-65
2021/07/04 03:04:26;;;;;;;5.87;5.37;;;;;23.50;100026.00;;;;2059971;28;20298;-65
2021/07/04 03:05:27;;;;;;;5.57;5.17;;;;;23.50;100026.00;;;;2059406;28;20210;-66
2021/07/04 03:06:27;;;;;;;5.23;4.83;;;;;23.50;100028.00;;;;2059025;28;20219;-65
2021/07/04 03:07:27;;;;;;;5.57;5.17;;;;;23.50;100028.00;;;;2059303;28;20730;-66
2021/07/04 03:08:28;;;;;;;5.93;5.43;;;;;23.50;100029.00;;;;2059237;28;20207;-65
2021/07/04 03:09:28;;;;;;;5.80;5.40;;;;;23.50;100036.00;;;;2060053;28;20215;-65
2021/07/04 03:10:28;;;;;;;5.83;5.43;;;;;23.50;100030.00;;;;2059975;28;20226;-65
2021/07/04 03:11:29;;;;;;;5.30;4.90;;;;;23.50;100029.00;;;;2062075;28;20207;-65
2021/07/04 03:12:29;;;;;;;5.30;4.90;;;;;23.50;100024.00;;;;2059913;28;20235;-66
2021/07/04 03:13:29;;;;;;;5.77;5.37;;;;;23.50;100019.00;;;;2063032;28;20236;-65
2021/07/04 03:14:30;;;;;;;5.30;4.90;;;;;23.50;100020.00;;;;2059892;28;20204;-66
2021/07/04 03:15:30;;;;;;;5.30;4.90;;;;;23.50;100016.00;;;;2060133;28;20208;-66
2021/07/04 03:16:30;;;;;;;5.67;5.17;;;;;23.50;100023.00;;;;2060141;28;20207;-65
2021/07/04 03:17:31;;;;;;;5.90;5.40;;;;;23.50;100017.00;;;;2059967;28;20222;-65
2021/07/04 03:18:31;;;;;;;5.50;5.10;;;;;23.50;100028.00;;;;2059020;28;20294;-65
2021/07/04 03:19:32;;;;;;;5.87;5.47;;;;;23.50;100014.00;;;;2062368;28;20210;-66
2021/07/04 03:20:32;;;;;;;5.13;4.67;;;;;23.50;100019.00;;;;2062635;28;20206;-65
2021/07/04 03:21:32;;;;;;;5.60;5.10;;;;;23.50;100024.00;;;;2059380;28;20714;-66
2021/07/04 03:22:33;;;;;;;5.33;4.93;;;;;23.50;100014.00;;;;2059995;28;20714;-65
2021/07/04 03:23:33;;;;;;;5.87;5.40;;;;;23.50;100009.00;;;;2060007;28;20687;-65
2021/07/04 03:24:33;;;;;;;6.00;5.50;;;;;23.50;100012.00;;;;2060097;28;20212;-66
2021/07/04 03:25:34;;;;;;;5.83;5.33;;;;;23.50;100016.00;;;;2060019;28;20203;-65
2021/07/04 03:26:34;;;;;;;5.67;5.27;;;;;23.40;100016.00;;;;2059094;28;20227;-65
2021/07/04 03:27:35;;;;;;;5.30;4.90;;;;;23.50;100011.00;;;;2058865;28;20305;-65
2021/07/04 03:28:35;;;;;;;5.17;4.77;;;;;23.50;100018.00;;;;2058826;28;20301;-66
2021/07/04 03:29:36;;;;;;;5.33;4.93;;;;;23.50;100010.00;;;;2059224;28;20448;-66
2021/07/04 03:30:36;;;;;;;5.73;5.30;;;;;23.50;100013.00;;;;2059356;28;20208;-66
2021/07/04 03:31:36;;;;;;;5.40;5.00;;;;;23.50;100008.00;;;;2059998;28;20223;-65
2021/07/04 03:32:37;;;;;;;5.20;4.80;;;;;23.50;100006.00;;;;2059782;28;20257;-65
2021/07/04 03:33:37;;;;;;;5.53;5.13;;;;;23.50;100007.00;;;;2060090;28;20677;-66
2021/07/04 03:34:38;;;;;;;5.30;4.83;;;;;23.50;100008.00;;;;2059762;28;20253;-65
2021/07/04 03:35:38;;;;;;;4.70;4.33;;;;;23.50;100013.00;;;;2059295;28;20281;-65
2021/07/04 03:36:38;;;;;;;5.20;4.80;;;;;23.50;100012.00;;;;2050887;28;20210;-65
2021/07/04 03:37:39;;;;;;;4.90;4.53;;;;;23.50;100014.00;;;;2066674;28;20218;-66
2021/07/04 03:38:39;;;;;;;5.57;5.13;;;;;23.50;100013.00;;;;2065261;28;20317;-66
2021/07/04 03:39:40;;;;;;;5.20;4.80;;;;;23.40;100012.00;;;;2059683;28;20717;-65
2021/07/04 03:40:40;;;;;;;5.50;5.10;;;;;23.50;100011.00;;;;2058238;28;20215;-65
2021/07/04 03:41:40;;;;;;;6.00;5.50;;;;;23.50;100004.00;;;;2063191;28;20764;-66
2021/07/04 03:42:41;;;;;;;5.63;5.23;;;;;23.50;100011.00;;;;2063554;28;20210;-65
2021/07/04 03:43:41;;;;;;;5.07;4.67;;;;;23.50;99998.00;;;;2061719;28;20198;-66
2021/07/04 03:44:42;;;;;;;4.60;4.30;;;;;23.50;100006.00;;;;2058809;28;20217;-65
2021/07/04 03:45:42;;;;;;;5.03;4.63;;;;;23.50;100006.00;;;;2059057;28;20215;-65
2021/07/04 03:46:42;;;;;;;5.27;4.87;;;;;23.50;100005.00;;;;2058975;28;20208;-66
2021/07/04 03:47:43;;;;;;;5.20;4.80;;;;;23.40;100006.00;;;;2058833;28;20302;-65
2021/07/04 03:48:43;;;;;;;5.80;5.40;;;;;23.50;100005.00;;;;2059806;28;20265;-66
2021/07/04 03:49:44;;;;;;;5.20;4.77;;;;;23.50;100011.00;;;;2059504;28;20218;-66
2021/07/04 03:50:44;;;;;;;5.47;5.03;;;;;23.50;100008.00;;;;2059255;28;20218;-66
2021/07/04 03:51:44;;;;;;;5.43;5.03;;;;;23.50;100008.00;;;;2062314;28;20234;-65
2021/07/04 03:52:45;;;;;;;5.33;4.93;;;;;23.50;100009.00;;;;2062575;28;20936;-66
2021/07/04 03:53:45;;;;;;;5.30;4.90;;;;;23.50;100008.00;;;;2058425;28;20714;-65
2021/07/04 03:54:46;;;;;;;4.93;4.53;;;;;23.50;100012.00;;;;2058282;28;20219;-65
2021/07/04 03:55:46;;;;;;;5.57;5.07;;;;;23.50;100005.00;;;;2058690;28;20219;-65
2021/07/04 03:56:46;;;;;;;5.00;4.60;;;;;23.50;100010.00;;;;2058603;28;20586;-65
2021/07/04 03:57:47;;;;;;;5.30;4.90;;;;;23.50;100016.00;;;;2060014;28;20617;-66
2021/07/04 03:58:48;;;;;;;4.80;4.47;;;;;23.50;100007.00;;;;2059832;28;20203;-66
2021/07/04 03:59:55;;;;;;;5.00;4.60;;;;;23.50;100010.00;;;;2059467;28;20257;-65
2021/07/04 04:00:56;;;;;;;5.55;5.05;;;;;23.50;100014.00;;;;2058786;28;20242;-66
2021/07/04 04:01:56;;;;;;;5.00;4.70;;;;;23.50;100015.00;;;;2058871;28;20215;-66
2021/07/04 04:02:56;;;;;;;5.17;4.77;;;;;23.50;100017.00;;;;2059080;28;20258;-65
2021/07/04 04:03:57;;;;;;;5.20;4.80;;;;;23.50;100020.00;;;;2062579;28;20215;-65
2021/07/04 04:04:57;;;;;;;5.03;4.63;;;;;23.50;100019.00;;;;2062815;28;20206;-65
2021/07/04 04:05:58;;;;;;;5.07;4.67;;;;;23.50;100017.00;;;;2059862;28;20299;-66
2021/07/04 04:06:58;;;;;;;5.03;4.63;;;;;23.50;100014.00;;;;2059794;28;20225;-66
2021/07/04 04:07:58;;;;;;;5.37;4.97;;;;;23.50;100013.00;;;;2059885;28;20242;-65
2021/07/04 04:08:59;;;;;;;5.10;4.70;;;;;23.50;100018.00;;;;2058940;28;20203;-65
2021/07/04 04:09:59;;;;;;;4.80;4.40;;;;;23.50;100020.00;;;;2058544;28;20269;-65
2021/07/04 04:10:59;;;;;;;5.37;4.90;;;;;23.50;100019.00;;;;2058331;28;20211;-65
2021/07/04 04:12:00;;;;;;;5.07;4.67;;;;;23.50;100019.00;;;;2058535;28;20695;-66
2021/07/04 04:13:01;;;;;;;4.83;4.53;;;;;23.50;100015.00;;;;2065701;28;20617;-66
2021/07/04 04:14:01;;;;;;;5.05;4.68;;;;;23.50;100022.00;;;;2064033;28;20211;-66
2021/07/04 04:15:02;;;;;;;4.80;4.40;;;;;23.40;100020.00;;;;2058062;28;20218;-65
2021/07/04 04:16:02;;;;;;;5.00;4.63;;;;;23.40;100011.00;;;;2058287;28;20215;-65
2021/07/04 04:17:03;;;;;;;5.60;5.10;;;;;23.50;100013.00;;;;2058728;28;20719;-66
2021/07/04 04:18:03;;;;;;;4.90;4.60;;;;;23.50;100022.00;;;;2058721;28;20709;-66
2021/07/04 04:19:04;;;;;;;4.97;4.57;;;;;23.50;100013.00;;;;2058837;28;20311;-66
2021/07/04 04:20:05;;;;;;;5.00;4.60;;;;;23.50;100021.00;;;;2059236;28;20554;-66
2021/07/04 04:21:06;;;;;;;5.10;4.70;;;;;23.50;100024.00;;;;2059288;28;20221;-66
2021/07/04 04:22:06;;;;;;;6.73;4.37;;;;;23.50;100023.00;;;;2057072;28;20241;-65
2021/07/04 04:23:07;;;;;;;5.20;4.80;;;;;23.50;100022.00;;;;2058084;28;20470;-66
2021/07/04 04:24:07;;;;;;;4.83;4.43;;;;;23.50;100025.00;;;;2058327;28;20247;-66
2021/07/04 04:25:09;;;;;;;4.40;4.10;;;;;23.50;100025.00;;;;2058560;28;20219;-66
2021/07/04 04:26:10;;;;;;;4.78;4.40;;;;;23.50;100023.00;;;;2058084;28;20223;-65
2021/07/04 04:27:10;;;;;;;4.67;4.37;;;;;23.50;100021.00;;;;2058542;28;20222;-66
2021/07/04 04:28:10;;;;;;;4.37;4.00;;;;;23.50;100019.00;;;;2058294;28;20642;-66
2021/07/04 04:29:11;;;;;;;4.73;4.43;;;;;23.50;100023.00;;;;2058892;28;20582;-65
2021/07/04 04:30:11;;;;;;;4.73;4.33;;;;;23.50;100021.00;;;;2059484;28;20657;-66
2021/07/04 04:31:12;;;;;;;4.77;4.37;;;;;23.50;100016.00;;;;2059506;28;20582;-66
2021/07/04 04:32:12;;;;;;;5.00;4.60;;;;;23.50;100025.00;;;;2059468;28;20455;-66
2021/07/04 04:33:12;;;;;;;4.73;4.43;;;;;23.50;100021.00;;;;2059658;28;20780;-66
2021/07/04 04:34:14;;;;;;;4.60;4.30;;;;;23.40;100020.00;;;;2059165;28;20222;-66
2021/07/04 04:35:14;;;;;;;4.57;4.28;;;;;23.40;100014.00;;;;2058966;28;20215;-65
2021/07/04 04:36:14;;;;;;;5.40;5.00;;;;;23.40;100022.00;;;;2058905;28;20210;-66
2021/07/04 04:37:15;;;;;;;5.60;5.20;;;;;23.50;100029.00;;;;2058839;28;20998;-65
2021/07/04 04:38:15;;;;;;;4.80;4.30;;;;;23.50;100023.00;;;;2059221;28;20322;-65
2021/07/04 04:39:15;;;;;;;5.27;4.87;;;;;23.50;100018.00;;;;2059605;28;20212;-65
2021/07/04 04:40:16;;;;;;;4.80;4.40;;;;;23.50;100027.00;;;;2059583;28;20219;-65
2021/07/04 04:41:18;;;;;;;4.77;4.47;;;;;23.40;100020.00;;;;2063524;28;20211;-65
2021/07/04 04:42:19;;;;;;;5.20;4.80;;;;;23.40;100021.00;;;;2063335;28;20867;-65
2021/07/04 04:43:19;;;;;;;4.77;4.40;;;;;23.40;100026.00;;;;2061200;28;20322;-65
2021/07/04 04:44:19;;;;;;;4.80;4.50;;;;;23.50;100022.00;;;;2059626;28;20211;-65
2021/07/04 04:45:20;;;;;;;4.33;4.03;;;;;23.30;100022.00;;;;2062276;28;20218;-65
2021/07/04 04:46:20;;;;;;;5.20;4.70;;;;;23.50;100035.00;;;;2062581;28;20215;-66
2021/07/04 04:47:21;;;;;;;4.73;4.37;;;;;23.50;100027.00;;;;2059004;28;20645;-66
2021/07/04 04:48:21;;;;;;;4.87;4.47;;;;;23.50;100032.00;;;;2058816;28;20297;-65
2021/07/04 04:49:21;;;;;;;4.90;4.50;;;;;23.50;100033.00;;;;2058855;28;20219;-65
2021/07/04 04:50:22;;;;;;;5.40;4.90;;;;;23.50;100028.00;;;;2058735;28;20211;-65
2021/07/04 04:51:23;;;;;;;5.10;4.70;;;;;23.50;100032.00;;;;2059490;28;20207;-65
2021/07/04 04:52:23;;;;;;;4.63;4.33;;;;;23.50;100031.00;;;;2059598;28;20212;-65
2021/07/04 04:53:23;;;;;;;4.77;4.30;;;;;23.50;100033.00;;;;2059582;28;20451;-65
2021/07/04 04:54:24;;;;;;;5.50;5.10;;;;;23.50;100032.00;;;;2059276;28;20219;-66
2021/07/04 04:55:24;;;;;;;5.07;4.67;;;;;23.50;100033.00;;;;2059094;28;20245;-65
2021/07/04 04:56:24;;;;;;;4.93;4.60;;;;;23.50;100030.00;;;;2058670;28;20211;-65
2021/07/04 04:57:25;;;;;;;4.47;4.10;;;;;23.50;100022.00;;;;2058914;28;20218;-65
2021/07/04 04:58:25;;;;;;;4.70;4.40;;;;;23.50;100022.00;;;;2058778;28;20266;-66
2021/07/04 04:59:25;;;;;;;5.20;4.80;;;;;23.50;100017.00;;;;2058693;28;20582;-66
2021/07/04 05:00:25;;;;;;;4.90;4.60;;;;;23.50;100020.00;;;;2059205;28;20215;-65